sensor_id;sensor_type;location;lat;lon;timestamp;P1;durP1;ratioP1;P2;durP2;ratioP2
12665;SDS011;58531;59.050;17.416;2022-10-16T00:01:24;29.93;;;17.73;;
12665;SDS011;58531;59.050;17.416;2022-10-16T00:03:52;26.47;;;17.73;;
12665;SDS011;58531;59.050;17.416;2022-10-16T00:06:19;31.20;;;18.70;;
12665;SDS011;58531;59.050;17.416;2022-10-16T00:08:47;28.10;;;17.47;;
12665;SDS011;58531;59.050;17.416;2022-10-16T00:11:16;30.67;;;18.40;;
12665;SDS011;58531;59.050;17.416;2022-10-16T00:13:46;32.17;;;18.43;;
12665;SDS011;58531;59.050;17.416;2022-10-16T00:16:14;38.40;;;19.23;;
12665;SDS011;58531;59.050;17.416;2022-10-16T00:18:41;32.67;;;19.17;;
12665;SDS011;58531;59.050;17.416;2022-10-16T00:21:09;32.90;;;19.40;;
12665;SDS011;58531;59.050;17.416;2022-10-16T00:23:37;38.47;;;20.87;;
12665;SDS011;58531;59.050;17.416;2022-10-16T00:26:06;37.30;;;20.70;;
12665;SDS011;58531;59.050;17.416;2022-10-16T00:28:37;39.37;;;19.70;;
12665;SDS011;58531;59.050;17.416;2022-10-16T00:31:04;38.37;;;20.77;;
12665;SDS011;58531;59.050;17.416;2022-10-16T00:33:32;35.77;;;19.53;;
12665;SDS011;58531;59.050;17.416;2022-10-16T00:35:59;36.20;;;20.63;;
12665;SDS011;58531;59.050;17.416;2022-10-16T00:38:26;33.57;;;19.87;;
12665;SDS011;58531;59.050;17.416;2022-10-16T00:40:53;39.17;;;20.70;;
12665;SDS011;58531;59.050;17.416;2022-10-16T00:43:33;36.43;;;19.97;;
12665;SDS011;58531;59.050;17.416;2022-10-16T00:46:10;40.67;;;21.67;;
12665;SDS011;58531;59.050;17.416;2022-10-16T00:48:41;40.70;;;19.67;;
12665;SDS011;58531;59.050;17.416;2022-10-16T00:51:11;41.50;;;21.13;;
12665;SDS011;58531;59.050;17.416;2022-10-16T00:53:38;39.03;;;19.60;;
12665;SDS011;58531;59.050;17.416;2022-10-16T00:56:05;35.83;;;19.67;;
12665;SDS011;58531;59.050;17.416;2022-10-16T00:58:32;37.50;;;19.17;;
12665;SDS011;58531;59.050;17.416;2022-10-16T01:00:59;38.57;;;18.27;;
12665;SDS011;58531;59.050;17.416;2022-10-16T01:03:29;34.70;;;19.00;;
12665;SDS011;58531;59.050;17.416;2022-10-16T01:06:01;37.23;;;19.63;;
12665;SDS011;58531;59.050;17.416;2022-10-16T01:08:37;42.07;;;20.73;;
12665;SDS011;58531;59.050;17.416;2022-10-16T01:11:09;35.77;;;19.00;;
12665;SDS011;58531;59.050;17.416;2022-10-16T01:13:46;35.97;;;18.57;;
12665;SDS011;58531;59.050;17.416;2022-10-16T01:16:17;35.60;;;19.83;;
12665;SDS011;58531;59.050;17.416;2022-10-16T01:18:54;34.47;;;18.97;;
12665;SDS011;58531;59.050;17.416;2022-10-16T01:21:26;33.17;;;18.67;;
12665;SDS011;58531;59.050;17.416;2022-10-16T01:23:58;32.53;;;18.83;;
12665;SDS011;58531;59.050;17.416;2022-10-16T01:26:36;32.40;;;18.30;;
12665;SDS011;58531;59.050;17.416;2022-10-16T01:29:14;28.73;;;17.07;;
12665;SDS011;58531;59.050;17.416;2022-10-16T01:31:47;28.33;;;17.13;;
12665;SDS011;58531;59.050;17.416;2022-10-16T01:34:18;31.53;;;16.97;;
12665;SDS011;58531;59.050;17.416;2022-10-16T01:36:50;29.10;;;17.20;;
12665;SDS011;58531;59.050;17.416;2022-10-16T01:39:20;29.73;;;17.00;;
12665;SDS011;58531;59.050;17.416;2022-10-16T01:41:51;30.63;;;16.47;;
12665;SDS011;58531;59.050;17.416;2022-10-16T01:44:26;29.17;;;16.07;;
12665;SDS011;58531;59.050;17.416;2022-10-16T01:46:55;27.10;;;16.23;;
12665;SDS011;58531;59.050;17.416;2022-10-16T01:49:23;23.63;;;15.60;;
12665;SDS011;58531;59.050;17.416;2022-10-16T01:51:55;26.90;;;15.43;;
12665;SDS011;58531;59.050;17.416;2022-10-16T01:54:25;24.40;;;15.43;;
12665;SDS011;58531;59.050;17.416;2022-10-16T01:56:55;24.43;;;15.27;;
12665;SDS011;58531;59.050;17.416;2022-10-16T01:59:23;23.20;;;15.47;;
12665;SDS011;58531;59.050;17.416;2022-10-16T02:01:54;24.23;;;14.73;;
12665;SDS011;58531;59.050;17.416;2022-10-16T02:04:26;26.77;;;15.47;;
12665;SDS011;58531;59.050;17.416;2022-10-16T02:06:58;28.23;;;15.83;;
12665;SDS011;58531;59.050;17.416;2022-10-16T02:09:25;23.40;;;14.83;;
12665;SDS011;58531;59.050;17.416;2022-10-16T02:11:53;25.63;;;15.40;;
12665;SDS011;58531;59.050;17.416;2022-10-16T02:14:22;22.13;;;15.07;;
12665;SDS011;58531;59.050;17.416;2022-10-16T02:16:51;20.37;;;14.27;;
12665;SDS011;58531;59.050;17.416;2022-10-16T02:19:18;20.93;;;13.60;;
12665;SDS011;58531;59.050;17.416;2022-10-16T02:21:49;21.90;;;14.33;;
12665;SDS011;58531;59.050;17.416;2022-10-16T02:24:21;25.83;;;15.20;;
12665;SDS011;58531;59.050;17.416;2022-10-16T02:26:57;24.00;;;15.03;;
12665;SDS011;58531;59.050;17.416;2022-10-16T02:29:31;20.67;;;13.50;;
12665;SDS011;58531;59.050;17.416;2022-10-16T02:32:01;22.93;;;13.93;;
12665;SDS011;58531;59.050;17.416;2022-10-16T02:34:31;22.20;;;14.70;;
12665;SDS011;58531;59.050;17.416;2022-10-16T02:36:59;19.47;;;13.70;;
12665;SDS011;58531;59.050;17.416;2022-10-16T02:39:30;23.83;;;14.10;;
12665;SDS011;58531;59.050;17.416;2022-10-16T02:41:57;18.87;;;13.10;;
12665;SDS011;58531;59.050;17.416;2022-10-16T02:44:24;19.27;;;13.53;;
12665;SDS011;58531;59.050;17.416;2022-10-16T02:46:51;19.90;;;12.77;;
12665;SDS011;58531;59.050;17.416;2022-10-16T02:49:19;18.43;;;12.57;;
12665;SDS011;58531;59.050;17.416;2022-10-16T02:51:46;19.17;;;13.27;;
12665;SDS011;58531;59.050;17.416;2022-10-16T02:54:13;22.73;;;13.10;;
12665;SDS011;58531;59.050;17.416;2022-10-16T02:56:40;17.73;;;12.23;;
12665;SDS011;58531;59.050;17.416;2022-10-16T02:59:07;18.70;;;12.43;;
12665;SDS011;58531;59.050;17.416;2022-10-16T03:01:34;18.97;;;12.53;;
12665;SDS011;58531;59.050;17.416;2022-10-16T03:04:01;20.10;;;12.53;;
12665;SDS011;58531;59.050;17.416;2022-10-16T03:06:29;19.80;;;12.47;;
12665;SDS011;58531;59.050;17.416;2022-10-16T03:08:56;16.43;;;11.83;;
12665;SDS011;58531;59.050;17.416;2022-10-16T03:11:22;17.90;;;12.17;;
12665;SDS011;58531;59.050;17.416;2022-10-16T03:13:49;17.33;;;11.80;;
12665;SDS011;58531;59.050;17.416;2022-10-16T03:16:16;19.40;;;12.40;;
12665;SDS011;58531;59.050;17.416;2022-10-16T03:18:43;16.10;;;12.20;;
12665;SDS011;58531;59.050;17.416;2022-10-16T03:21:09;17.30;;;11.20;;
12665;SDS011;58531;59.050;17.416;2022-10-16T03:23:38;18.70;;;11.73;;
12665;SDS011;58531;59.050;17.416;2022-10-16T03:26:04;19.30;;;11.63;;
12665;SDS011;58531;59.050;17.416;2022-10-16T03:28:31;15.60;;;10.87;;
12665;SDS011;58531;59.050;17.416;2022-10-16T03:30:58;18.47;;;11.43;;
12665;SDS011;58531;59.050;17.416;2022-10-16T03:33:25;17.87;;;12.43;;
12665;SDS011;58531;59.050;17.416;2022-10-16T03:35:52;16.13;;;11.77;;
12665;SDS011;58531;59.050;17.416;2022-10-16T03:38:20;17.63;;;11.20;;
12665;SDS011;58531;59.050;17.416;2022-10-16T03:40:48;16.30;;;11.43;;
12665;SDS011;58531;59.050;17.416;2022-10-16T03:43:15;17.33;;;12.30;;
12665;SDS011;58531;59.050;17.416;2022-10-16T03:45:42;18.40;;;11.43;;
12665;SDS011;58531;59.050;17.416;2022-10-16T03:48:09;18.47;;;11.70;;
12665;SDS011;58531;59.050;17.416;2022-10-16T03:50:36;17.73;;;11.73;;
12665;SDS011;58531;59.050;17.416;2022-10-16T03:53:03;24.37;;;12.23;;
12665;SDS011;58531;59.050;17.416;2022-10-16T03:55:30;17.40;;;10.67;;
12665;SDS011;58531;59.050;17.416;2022-10-16T03:57:58;18.07;;;11.80;;
12665;SDS011;58531;59.050;17.416;2022-10-16T04:00:25;18.93;;;11.90;;
12665;SDS011;58531;59.050;17.416;2022-10-16T04:02:52;16.97;;;11.30;;
12665;SDS011;58531;59.050;17.416;2022-10-16T04:05:18;17.00;;;12.13;;
12665;SDS011;58531;59.050;17.416;2022-10-16T04:07:45;16.23;;;11.60;;
12665;SDS011;58531;59.050;17.416;2022-10-16T04:10:12;18.90;;;12.23;;
12665;SDS011;58531;59.050;17.416;2022-10-16T04:12:39;18.50;;;11.43;;
12665;SDS011;58531;59.050;17.416;2022-10-16T04:15:08;17.63;;;11.70;;
12665;SDS011;58531;59.050;17.416;2022-10-16T04:17:35;18.60;;;11.37;;
12665;SDS011;58531;59.050;17.416;2022-10-16T04:20:02;19.67;;;12.53;;
12665;SDS011;58531;59.050;17.416;2022-10-16T04:22:30;17.27;;;10.60;;
12665;SDS011;58531;59.050;17.416;2022-10-16T04:24:56;15.13;;;10.80;;
12665;SDS011;58531;59.050;17.416;2022-10-16T04:27:23;15.67;;;11.40;;
12665;SDS011;58531;59.050;17.416;2022-10-16T04:29:50;16.50;;;10.20;;
12665;SDS011;58531;59.050;17.416;2022-10-16T04:32:18;16.23;;;10.60;;
12665;SDS011;58531;59.050;17.416;2022-10-16T04:34:45;16.17;;;10.80;;
12665;SDS011;58531;59.050;17.416;2022-10-16T04:37:12;17.00;;;10.67;;
12665;SDS011;58531;59.050;17.416;2022-10-16T04:39:38;15.07;;;10.43;;
12665;SDS011;58531;59.050;17.416;2022-10-16T04:42:05;17.90;;;11.30;;
12665;SDS011;58531;59.050;17.416;2022-10-16T04:44:32;15.27;;;10.97;;
12665;SDS011;58531;59.050;17.416;2022-10-16T04:46:59;15.57;;;10.17;;
12665;SDS011;58531;59.050;17.416;2022-10-16T04:49:27;16.17;;;10.90;;
12665;SDS011;58531;59.050;17.416;2022-10-16T04:51:54;21.00;;;10.97;;
12665;SDS011;58531;59.050;17.416;2022-10-16T04:54:20;18.80;;;11.47;;
12665;SDS011;58531;59.050;17.416;2022-10-16T04:56:47;16.40;;;11.70;;
12665;SDS011;58531;59.050;17.416;2022-10-16T04:59:16;16.87;;;11.97;;
12665;SDS011;58531;59.050;17.416;2022-10-16T05:01:43;18.30;;;11.90;;
12665;SDS011;58531;59.050;17.416;2022-10-16T05:04:10;19.37;;;12.07;;
12665;SDS011;58531;59.050;17.416;2022-10-16T05:06:39;17.77;;;11.50;;
12665;SDS011;58531;59.050;17.416;2022-10-16T05:09:06;20.37;;;13.23;;
12665;SDS011;58531;59.050;17.416;2022-10-16T05:11:34;22.47;;;12.83;;
12665;SDS011;58531;59.050;17.416;2022-10-16T05:14:01;20.13;;;13.10;;
12665;SDS011;58531;59.050;17.416;2022-10-16T05:16:28;19.23;;;13.20;;
12665;SDS011;58531;59.050;17.416;2022-10-16T05:18:55;20.73;;;13.27;;
12665;SDS011;58531;59.050;17.416;2022-10-16T05:21:22;22.93;;;13.90;;
12665;SDS011;58531;59.050;17.416;2022-10-16T05:23:50;22.87;;;14.30;;
12665;SDS011;58531;59.050;17.416;2022-10-16T05:26:18;27.00;;;14.17;;
12665;SDS011;58531;59.050;17.416;2022-10-16T05:28:45;24.23;;;13.80;;
12665;SDS011;58531;59.050;17.416;2022-10-16T05:31:12;25.03;;;15.17;;
12665;SDS011;58531;59.050;17.416;2022-10-16T05:33:39;22.90;;;14.67;;
12665;SDS011;58531;59.050;17.416;2022-10-16T05:36:07;25.73;;;15.53;;
12665;SDS011;58531;59.050;17.416;2022-10-16T05:38:35;28.93;;;16.07;;
12665;SDS011;58531;59.050;17.416;2022-10-16T05:41:04;28.07;;;16.77;;
12665;SDS011;58531;59.050;17.416;2022-10-16T05:43:31;27.00;;;16.77;;
12665;SDS011;58531;59.050;17.416;2022-10-16T05:45:59;27.10;;;16.70;;
12665;SDS011;58531;59.050;17.416;2022-10-16T05:48:27;32.07;;;17.80;;
12665;SDS011;58531;59.050;17.416;2022-10-16T05:50:58;25.77;;;16.87;;
12665;SDS011;58531;59.050;17.416;2022-10-16T05:53:26;29.67;;;16.93;;
12665;SDS011;58531;59.050;17.416;2022-10-16T05:55:54;29.30;;;17.87;;
12665;SDS011;58531;59.050;17.416;2022-10-16T05:58:23;30.07;;;18.07;;
12665;SDS011;58531;59.050;17.416;2022-10-16T06:00:54;27.83;;;18.40;;
12665;SDS011;58531;59.050;17.416;2022-10-16T06:03:21;32.87;;;18.60;;
12665;SDS011;58531;59.050;17.416;2022-10-16T06:05:51;31.57;;;18.80;;
12665;SDS011;58531;59.050;17.416;2022-10-16T06:08:18;38.13;;;19.37;;
12665;SDS011;58531;59.050;17.416;2022-10-16T06:10:47;34.73;;;19.00;;
12665;SDS011;58531;59.050;17.416;2022-10-16T06:13:14;31.60;;;18.37;;
12665;SDS011;58531;59.050;17.416;2022-10-16T06:15:43;30.30;;;18.30;;
12665;SDS011;58531;59.050;17.416;2022-10-16T06:18:10;31.40;;;18.43;;
12665;SDS011;58531;59.050;17.416;2022-10-16T06:20:37;27.20;;;17.77;;
12665;SDS011;58531;59.050;17.416;2022-10-16T06:23:04;27.37;;;16.97;;
12665;SDS011;58531;59.050;17.416;2022-10-16T06:25:30;27.57;;;16.23;;
12665;SDS011;58531;59.050;17.416;2022-10-16T06:27:58;28.90;;;16.77;;
12665;SDS011;58531;59.050;17.416;2022-10-16T06:30:24;26.60;;;16.80;;
12665;SDS011;58531;59.050;17.416;2022-10-16T06:32:53;22.83;;;16.60;;
12665;SDS011;58531;59.050;17.416;2022-10-16T06:35:19;21.77;;;14.70;;
12665;SDS011;58531;59.050;17.416;2022-10-16T06:37:47;23.77;;;13.87;;
12665;SDS011;58531;59.050;17.416;2022-10-16T06:40:13;23.57;;;14.27;;
12665;SDS011;58531;59.050;17.416;2022-10-16T06:42:40;19.00;;;13.23;;
12665;SDS011;58531;59.050;17.416;2022-10-16T06:45:07;21.30;;;12.83;;
12665;SDS011;58531;59.050;17.416;2022-10-16T06:47:35;15.17;;;11.90;;
12665;SDS011;58531;59.050;17.416;2022-10-16T06:50:03;16.77;;;11.43;;
12665;SDS011;58531;59.050;17.416;2022-10-16T06:52:32;17.63;;;11.83;;
12665;SDS011;58531;59.050;17.416;2022-10-16T06:54:59;14.40;;;11.07;;
12665;SDS011;58531;59.050;17.416;2022-10-16T06:57:27;15.33;;;11.13;;
12665;SDS011;58531;59.050;17.416;2022-10-16T06:59:54;11.23;;;9.67;;
12665;SDS011;58531;59.050;17.416;2022-10-16T07:02:21;11.23;;;9.73;;
12665;SDS011;58531;59.050;17.416;2022-10-16T07:04:48;12.10;;;9.83;;
12665;SDS011;58531;59.050;17.416;2022-10-16T07:07:16;11.47;;;9.17;;
12665;SDS011;58531;59.050;17.416;2022-10-16T07:09:43;10.23;;;8.70;;
12665;SDS011;58531;59.050;17.416;2022-10-16T07:12:10;10.93;;;8.33;;
12665;SDS011;58531;59.050;17.416;2022-10-16T07:14:37;9.80;;;7.77;;
12665;SDS011;58531;59.050;17.416;2022-10-16T07:17:03;9.67;;;8.20;;
12665;SDS011;58531;59.050;17.416;2022-10-16T07:19:30;8.20;;;7.40;;
12665;SDS011;58531;59.050;17.416;2022-10-16T07:21:57;9.13;;;7.70;;
12665;SDS011;58531;59.050;17.416;2022-10-16T07:24:25;8.07;;;7.27;;
12665;SDS011;58531;59.050;17.416;2022-10-16T07:26:52;6.70;;;6.00;;
12665;SDS011;58531;59.050;17.416;2022-10-16T07:29:19;8.67;;;6.63;;
12665;SDS011;58531;59.050;17.416;2022-10-16T07:31:47;6.67;;;5.70;;
12665;SDS011;58531;59.050;17.416;2022-10-16T07:34:16;8.30;;;5.97;;
12665;SDS011;58531;59.050;17.416;2022-10-16T07:36:47;8.10;;;6.10;;
12665;SDS011;58531;59.050;17.416;2022-10-16T07:39:14;6.83;;;5.47;;
12665;SDS011;58531;59.050;17.416;2022-10-16T07:41:42;9.83;;;5.53;;
12665;SDS011;58531;59.050;17.416;2022-10-16T07:44:09;8.47;;;5.83;;
12665;SDS011;58531;59.050;17.416;2022-10-16T07:46:36;5.50;;;5.00;;
12665;SDS011;58531;59.050;17.416;2022-10-16T07:49:03;5.63;;;5.13;;
12665;SDS011;58531;59.050;17.416;2022-10-16T07:51:30;6.97;;;5.63;;
12665;SDS011;58531;59.050;17.416;2022-10-16T07:53:56;6.67;;;5.40;;
12665;SDS011;58531;59.050;17.416;2022-10-16T07:56:23;5.73;;;5.13;;
12665;SDS011;58531;59.050;17.416;2022-10-16T07:58:52;5.77;;;4.63;;
12665;SDS011;58531;59.050;17.416;2022-10-16T08:01:19;5.17;;;4.43;;
12665;SDS011;58531;59.050;17.416;2022-10-16T08:03:46;4.93;;;4.43;;
12665;SDS011;58531;59.050;17.416;2022-10-16T08:06:14;5.83;;;4.50;;
12665;SDS011;58531;59.050;17.416;2022-10-16T08:08:41;6.63;;;4.90;;
12665;SDS011;58531;59.050;17.416;2022-10-16T08:11:08;4.80;;;4.13;;
12665;SDS011;58531;59.050;17.416;2022-10-16T08:13:35;4.97;;;4.00;;
12665;SDS011;58531;59.050;17.416;2022-10-16T08:16:04;5.53;;;4.60;;
12665;SDS011;58531;59.050;17.416;2022-10-16T08:18:33;5.43;;;4.20;;
12665;SDS011;58531;59.050;17.416;2022-10-16T08:21:01;5.23;;;3.80;;
12665;SDS011;58531;59.050;17.416;2022-10-16T08:23:28;6.10;;;4.20;;
12665;SDS011;58531;59.050;17.416;2022-10-16T08:25:55;4.67;;;4.20;;
12665;SDS011;58531;59.050;17.416;2022-10-16T08:28:27;4.50;;;4.10;;
12665;SDS011;58531;59.050;17.416;2022-10-16T08:30:54;4.87;;;4.10;;
12665;SDS011;58531;59.050;17.416;2022-10-16T08:33:23;4.43;;;3.80;;
12665;SDS011;58531;59.050;17.416;2022-10-16T08:35:50;3.60;;;3.30;;
12665;SDS011;58531;59.050;17.416;2022-10-16T08:38:18;4.03;;;3.63;;
12665;SDS011;58531;59.050;17.416;2022-10-16T08:40:45;4.33;;;3.93;;
12665;SDS011;58531;59.050;17.416;2022-10-16T08:46:11;3.93;;;3.57;;
12665;SDS011;58531;59.050;17.416;2022-10-16T08:48:50;4.43;;;3.60;;
12665;SDS011;58531;59.050;17.416;2022-10-16T08:51:19;4.13;;;3.77;;
12665;SDS011;58531;59.050;17.416;2022-10-16T08:53:49;4.30;;;3.80;;
12665;SDS011;58531;59.050;17.416;2022-10-16T08:56:19;4.60;;;3.80;;
12665;SDS011;58531;59.050;17.416;2022-10-16T08:58:46;5.53;;;4.97;;
12665;SDS011;58531;59.050;17.416;2022-10-16T09:01:14;6.63;;;4.73;;
12665;SDS011;58531;59.050;17.416;2022-10-16T09:03:57;5.83;;;4.63;;
12665;SDS011;58531;59.050;17.416;2022-10-16T09:06:44;4.47;;;3.27;;
12665;SDS011;58531;59.050;17.416;2022-10-16T09:09:20;5.20;;;4.70;;
12665;SDS011;58531;59.050;17.416;2022-10-16T09:12:02;4.63;;;4.10;;
12665;SDS011;58531;59.050;17.416;2022-10-16T09:14:38;4.57;;;3.77;;
12665;SDS011;58531;59.050;17.416;2022-10-16T09:20:02;6.13;;;3.60;;
12665;SDS011;58531;59.050;17.416;2022-10-16T09:22:39;4.60;;;3.40;;
12665;SDS011;58531;59.050;17.416;2022-10-16T09:25:10;4.50;;;3.57;;
12665;SDS011;58531;59.050;17.416;2022-10-16T09:27:39;5.40;;;4.77;;
12665;SDS011;58531;59.050;17.416;2022-10-16T09:30:10;5.83;;;3.83;;
12665;SDS011;58531;59.050;17.416;2022-10-16T09:32:39;3.90;;;2.97;;
12665;SDS011;58531;59.050;17.416;2022-10-16T09:35:11;3.40;;;3.10;;
12665;SDS011;58531;59.050;17.416;2022-10-16T09:37:42;5.17;;;3.70;;
12665;SDS011;58531;59.050;17.416;2022-10-16T09:40:13;5.73;;;4.13;;
12665;SDS011;58531;59.050;17.416;2022-10-16T09:42:50;4.17;;;3.30;;
12665;SDS011;58531;59.050;17.416;2022-10-16T09:45:23;4.73;;;3.23;;
12665;SDS011;58531;59.050;17.416;2022-10-16T09:47:50;3.90;;;3.53;;
12665;SDS011;58531;59.050;17.416;2022-10-16T09:50:22;3.50;;;3.10;;
12665;SDS011;58531;59.050;17.416;2022-10-16T09:52:51;3.57;;;2.90;;
12665;SDS011;58531;59.050;17.416;2022-10-16T09:55:29;4.47;;;2.87;;
12665;SDS011;58531;59.050;17.416;2022-10-16T09:57:56;6.80;;;3.33;;
12665;SDS011;58531;59.050;17.416;2022-10-16T10:00:24;5.90;;;2.70;;
12665;SDS011;58531;59.050;17.416;2022-10-16T10:02:51;5.23;;;2.80;;
12665;SDS011;58531;59.050;17.416;2022-10-16T10:05:20;4.03;;;2.87;;
12665;SDS011;58531;59.050;17.416;2022-10-16T10:07:54;3.17;;;2.17;;
12665;SDS011;58531;59.050;17.416;2022-10-16T10:10:24;3.90;;;2.73;;
12665;SDS011;58531;59.050;17.416;2022-10-16T10:12:53;4.50;;;2.80;;
12665;SDS011;58531;59.050;17.416;2022-10-16T10:15:21;3.73;;;2.37;;
12665;SDS011;58531;59.050;17.416;2022-10-16T10:17:50;5.43;;;2.80;;
12665;SDS011;58531;59.050;17.416;2022-10-16T10:20:24;4.90;;;2.70;;
12665;SDS011;58531;59.050;17.416;2022-10-16T10:22:53;6.40;;;2.43;;
12665;SDS011;58531;59.050;17.416;2022-10-16T10:25:26;3.93;;;2.33;;
12665;SDS011;58531;59.050;17.416;2022-10-16T10:28:28;4.67;;;2.20;;
12665;SDS011;58531;59.050;17.416;2022-10-16T10:31:14;5.80;;;2.53;;
12665;SDS011;58531;59.050;17.416;2022-10-16T10:33:49;4.63;;;2.27;;
12665;SDS011;58531;59.050;17.416;2022-10-16T10:36:30;3.13;;;2.40;;
12665;SDS011;58531;59.050;17.416;2022-10-16T10:39:01;8.23;;;2.67;;
12665;SDS011;58531;59.050;17.416;2022-10-16T10:41:36;5.53;;;2.70;;
12665;SDS011;58531;59.050;17.416;2022-10-16T10:44:26;5.77;;;2.80;;
12665;SDS011;58531;59.050;17.416;2022-10-16T10:47:05;3.63;;;2.37;;
12665;SDS011;58531;59.050;17.416;2022-10-16T10:49:46;4.00;;;3.17;;
12665;SDS011;58531;59.050;17.416;2022-10-16T10:52:36;6.23;;;4.23;;
12665;SDS011;58531;59.050;17.416;2022-10-16T10:55:10;4.07;;;2.43;;
12665;SDS011;58531;59.050;17.416;2022-10-16T10:57:50;3.17;;;2.83;;
12665;SDS011;58531;59.050;17.416;2022-10-16T11:00:28;5.27;;;3.37;;
12665;SDS011;58531;59.050;17.416;2022-10-16T11:03:04;4.57;;;2.80;;
12665;SDS011;58531;59.050;17.416;2022-10-16T11:05:40;4.73;;;2.60;;
12665;SDS011;58531;59.050;17.416;2022-10-16T11:08:13;5.07;;;2.50;;
12665;SDS011;58531;59.050;17.416;2022-10-16T11:10:48;3.23;;;2.43;;
12665;SDS011;58531;59.050;17.416;2022-10-16T11:13:21;3.87;;;2.93;;
12665;SDS011;58531;59.050;17.416;2022-10-16T11:15:57;5.53;;;3.23;;
12665;SDS011;58531;59.050;17.416;2022-10-16T11:18:27;3.87;;;2.30;;
12665;SDS011;58531;59.050;17.416;2022-10-16T11:21:01;3.67;;;2.27;;
12665;SDS011;58531;59.050;17.416;2022-10-16T11:23:33;5.50;;;2.67;;
12665;SDS011;58531;59.050;17.416;2022-10-16T11:26:09;3.73;;;2.33;;
12665;SDS011;58531;59.050;17.416;2022-10-16T11:28:43;4.00;;;2.40;;
12665;SDS011;58531;59.050;17.416;2022-10-16T11:31:16;4.80;;;2.40;;
12665;SDS011;58531;59.050;17.416;2022-10-16T11:33:46;4.13;;;2.57;;
12665;SDS011;58531;59.050;17.416;2022-10-16T11:36:19;3.20;;;2.40;;
12665;SDS011;58531;59.050;17.416;2022-10-16T11:38:52;4.63;;;2.50;;
12665;SDS011;58531;59.050;17.416;2022-10-16T11:41:27;6.53;;;2.93;;
12665;SDS011;58531;59.050;17.416;2022-10-16T11:44:16;5.40;;;3.07;;
12665;SDS011;58531;59.050;17.416;2022-10-16T11:46:50;4.87;;;2.77;;
12665;SDS011;58531;59.050;17.416;2022-10-16T11:49:25;6.33;;;3.80;;
12665;SDS011;58531;59.050;17.416;2022-10-16T11:51:57;5.03;;;3.40;;
12665;SDS011;58531;59.050;17.416;2022-10-16T11:54:35;5.33;;;3.37;;
12665;SDS011;58531;59.050;17.416;2022-10-16T11:57:09;3.33;;;2.53;;
12665;SDS011;58531;59.050;17.416;2022-10-16T11:59:41;5.57;;;3.40;;
12665;SDS011;58531;59.050;17.416;2022-10-16T12:02:25;8.73;;;6.50;;
12665;SDS011;58531;59.050;17.416;2022-10-16T12:05:02;5.00;;;3.30;;
12665;SDS011;58531;59.050;17.416;2022-10-16T12:07:39;7.63;;;6.27;;
12665;SDS011;58531;59.050;17.416;2022-10-16T12:10:20;8.00;;;5.50;;
12665;SDS011;58531;59.050;17.416;2022-10-16T12:12:49;5.67;;;4.03;;
12665;SDS011;58531;59.050;17.416;2022-10-16T12:15:21;5.80;;;3.50;;
12665;SDS011;58531;59.050;17.416;2022-10-16T12:17:49;5.50;;;4.23;;
12665;SDS011;58531;59.050;17.416;2022-10-16T12:20:24;5.90;;;2.30;;
12665;SDS011;58531;59.050;17.416;2022-10-16T12:22:56;2.90;;;2.20;;
12665;SDS011;58531;59.050;17.416;2022-10-16T12:25:26;5.23;;;2.20;;
12665;SDS011;58531;59.050;17.416;2022-10-16T12:27:56;3.40;;;2.10;;
12665;SDS011;58531;59.050;17.416;2022-10-16T12:30:26;3.27;;;2.07;;
12665;SDS011;58531;59.050;17.416;2022-10-16T12:32:54;4.73;;;2.30;;
12665;SDS011;58531;59.050;17.416;2022-10-16T12:35:23;2.50;;;2.30;;
12665;SDS011;58531;59.050;17.416;2022-10-16T12:37:52;4.90;;;2.10;;
12665;SDS011;58531;59.050;17.416;2022-10-16T12:40:24;4.80;;;3.03;;
12665;SDS011;58531;59.050;17.416;2022-10-16T12:42:56;5.53;;;2.57;;
12665;SDS011;58531;59.050;17.416;2022-10-16T12:45:24;2.40;;;2.07;;
12665;SDS011;58531;59.050;17.416;2022-10-16T12:47:53;4.07;;;2.97;;
12665;SDS011;58531;59.050;17.416;2022-10-16T12:50:23;2.50;;;2.10;;
12665;SDS011;58531;59.050;17.416;2022-10-16T12:52:55;10.97;;;2.33;;
12665;SDS011;58531;59.050;17.416;2022-10-16T12:55:22;3.67;;;2.13;;
12665;SDS011;58531;59.050;17.416;2022-10-16T12:58:00;3.87;;;2.53;;
12665;SDS011;58531;59.050;17.416;2022-10-16T13:00:38;6.97;;;2.80;;
12665;SDS011;58531;59.050;17.416;2022-10-16T13:03:22;4.57;;;3.43;;
12665;SDS011;58531;59.050;17.416;2022-10-16T13:06:08;8.00;;;6.13;;
12665;SDS011;58531;59.050;17.416;2022-10-16T13:08:56;3.33;;;2.60;;
12665;SDS011;58531;59.050;17.416;2022-10-16T13:11:38;4.67;;;1.83;;
12665;SDS011;58531;59.050;17.416;2022-10-16T13:14:22;4.47;;;1.97;;
12665;SDS011;58531;59.050;17.416;2022-10-16T13:17:10;2.53;;;1.83;;
12665;SDS011;58531;59.050;17.416;2022-10-16T13:19:45;4.33;;;2.17;;
12665;SDS011;58531;59.050;17.416;2022-10-16T13:22:21;3.93;;;2.20;;
12665;SDS011;58531;59.050;17.416;2022-10-16T13:24:59;3.77;;;2.10;;
12665;SDS011;58531;59.050;17.416;2022-10-16T13:27:38;3.93;;;2.00;;
12665;SDS011;58531;59.050;17.416;2022-10-16T13:30:14;3.50;;;1.80;;
12665;SDS011;58531;59.050;17.416;2022-10-16T13:32:45;2.13;;;1.70;;
12665;SDS011;58531;59.050;17.416;2022-10-16T13:35:20;4.80;;;2.03;;
12665;SDS011;58531;59.050;17.416;2022-10-16T13:37:50;5.03;;;2.00;;
12665;SDS011;58531;59.050;17.416;2022-10-16T13:40:18;5.07;;;1.90;;
12665;SDS011;58531;59.050;17.416;2022-10-16T13:42:47;4.47;;;1.93;;
12665;SDS011;58531;59.050;17.416;2022-10-16T13:45:19;4.63;;;2.23;;
12665;SDS011;58531;59.050;17.416;2022-10-16T13:47:47;2.33;;;1.70;;
12665;SDS011;58531;59.050;17.416;2022-10-16T13:50:15;4.30;;;2.20;;
12665;SDS011;58531;59.050;17.416;2022-10-16T13:52:43;3.63;;;2.13;;
12665;SDS011;58531;59.050;17.416;2022-10-16T13:55:11;3.57;;;2.13;;
12665;SDS011;58531;59.050;17.416;2022-10-16T13:57:39;10.50;;;2.50;;
12665;SDS011;58531;59.050;17.416;2022-10-16T14:00:22;3.53;;;2.20;;
12665;SDS011;58531;59.050;17.416;2022-10-16T14:02:51;2.43;;;1.90;;
12665;SDS011;58531;59.050;17.416;2022-10-16T14:05:23;4.87;;;2.30;;
12665;SDS011;58531;59.050;17.416;2022-10-16T14:07:50;4.80;;;1.93;;
12665;SDS011;58531;59.050;17.416;2022-10-16T14:10:20;4.83;;;1.90;;
12665;SDS011;58531;59.050;17.416;2022-10-16T14:12:56;7.30;;;1.83;;
12665;SDS011;58531;59.050;17.416;2022-10-16T14:15:26;4.60;;;2.10;;
12665;SDS011;58531;59.050;17.416;2022-10-16T14:17:53;5.40;;;2.17;;
12665;SDS011;58531;59.050;17.416;2022-10-16T14:20:21;3.27;;;1.70;;
12665;SDS011;58531;59.050;17.416;2022-10-16T14:22:58;3.47;;;1.87;;
12665;SDS011;58531;59.050;17.416;2022-10-16T14:25:27;5.90;;;2.47;;
12665;SDS011;58531;59.050;17.416;2022-10-16T14:27:57;6.17;;;2.23;;
12665;SDS011;58531;59.050;17.416;2022-10-16T14:30:27;3.57;;;1.67;;
12665;SDS011;58531;59.050;17.416;2022-10-16T14:32:55;2.50;;;1.80;;
12665;SDS011;58531;59.050;17.416;2022-10-16T14:35:28;5.67;;;2.00;;
12665;SDS011;58531;59.050;17.416;2022-10-16T14:37:57;3.77;;;2.07;;
12665;SDS011;58531;59.050;17.416;2022-10-16T14:40:26;5.27;;;1.93;;
12665;SDS011;58531;59.050;17.416;2022-10-16T14:42:55;2.53;;;2.13;;
12665;SDS011;58531;59.050;17.416;2022-10-16T14:45:24;6.83;;;2.23;;